LiveATC.Net - Listen to live air traffic control over the Internet!

ICAO: RKSG  IATA:   Airport: Pyongtaek-Desiderio AAF Airport (A 511)
City: Pyeongtaek
Country: Korea, Republic of   Continent: Asia
RKSG METAR Weather: RKSG 281158Z 31007KT 7SM BKN180 13/07 A3007 RMK AO2A SLP186 T01320066 10180 20130 52021 $
RKSG Flight Activity (FlightAware)
RKSG Gnd/Twr/App
Feed Status: UP   Listeners: 0
Listen right in your browser - requires Flash (in browser, requires Flash)
Click here to listen with your own player (launches your MP3 player)
RKSG Gnd/Twr/App Audio Archives
Desiderio Final255.800
Desiderio GCA127.000
Desiderio GCA226.800
Desiderio Ground (Camp Humphreys A-511 AAF)119.500
Desiderio Ground UHF229.700
Desiderio Ops294.100
Desiderio Tower (Camp Humphreys A-511 AAF)122.500
Desiderio Tower UHF257.800


Unauthorized use prohibited. See Terms of Service

Find LiveATC Audio Streams

Airport/ARTCC Code

(e.g., 124.400, 128.75)
Site-wide search

Browse LiveATC Feeds
LiveATC Coverage Map
Top 50 LiveATC Feeds
Bad Weather Areas

Offer a LiveATC Feed
Press Inquiries

LiveATC on iPhone
LiveATC on Android

Windows Phone
Windows 8/10

LiveATC Mobile
(Mobile browser)

ATC Audio Archives
Interesting Recordings

LiveATC Forums

Home Page
Make a Donation
LiveATC Store

Terms of Use
Privacy Policy

Canadian Air Freqs


FAA Airport Status
Nat'l Airspace Status
Arrival Demand Charts

Server Software By: